createdAt,value
2018-11-22T00:01:35.871Z,0.20
2018-11-22T00:04:16.072Z,0.20
2018-11-22T00:06:55.598Z,0.20
2018-11-22T00:09:35.388Z,0.20
2018-11-22T00:12:15.633Z,0.20
2018-11-22T00:14:55.734Z,0.30
2018-11-22T00:17:36.437Z,0.20
2018-11-22T00:20:17.022Z,0.20
2018-11-22T00:22:57.497Z,0.20
2018-11-22T00:25:37.160Z,0.20
2018-11-22T00:28:17.135Z,0.20
2018-11-22T00:30:56.837Z,0.20
2018-11-22T00:33:36.601Z,0.20
2018-11-22T00:36:16.485Z,0.20
2018-11-22T00:38:56.734Z,0.20
2018-11-22T00:41:36.569Z,0.20
2018-11-22T00:44:16.370Z,0.20
2018-11-22T00:46:56.577Z,0.20
2018-11-22T00:49:36.499Z,0.20
2018-11-22T00:52:16.269Z,0.30
2018-11-22T00:54:56.775Z,0.20
2018-11-22T00:57:37.331Z,0.20
2018-11-22T01:00:28.192Z,0.20
2018-11-22T01:03:07.809Z,0.30
2018-11-22T01:05:47.990Z,0.30
2018-11-22T01:08:27.742Z,0.30
2018-11-22T01:11:08.270Z,0.30
2018-11-22T01:13:48.111Z,0.20
2018-11-22T01:16:27.878Z,0.20
2018-11-22T01:19:07.755Z,0.20
2018-11-22T01:21:47.629Z,0.20
2018-11-22T01:24:27.495Z,0.30
2018-11-22T01:27:07.610Z,0.30
2018-11-22T01:29:47.392Z,0.30
2018-11-22T01:32:27.352Z,0.30
2018-11-22T01:35:07.131Z,0.30
2018-11-22T01:37:46.928Z,0.30
2018-11-22T01:40:27.183Z,0.30
2018-11-22T01:43:06.882Z,0.30
2018-11-22T01:45:46.973Z,0.30
2018-11-22T01:48:27.631Z,0.30
2018-11-22T01:51:07.500Z,0.30
2018-11-22T01:53:47.347Z,0.20
2018-11-22T01:56:27.048Z,0.20
2018-11-22T01:59:07.408Z,0.20
2018-11-22T02:01:47.185Z,0.20
2018-11-22T02:04:26.809Z,0.20
2018-11-22T02:07:07.459Z,0.20
2018-11-22T02:09:47.479Z,0.30
2018-11-22T02:12:28.044Z,0.30
2018-11-22T02:15:09.005Z,0.20
2018-11-22T02:17:48.904Z,0.20
2018-11-22T02:20:29.502Z,0.20
2018-11-22T02:23:09.887Z,0.30
2018-11-22T02:25:49.480Z,0.30
2018-11-22T02:28:30.087Z,0.30
2018-11-22T02:31:10.639Z,0.20
2018-11-22T02:33:50.459Z,0.20
2018-11-22T02:36:31.003Z,0.20
2018-11-22T02:39:11.929Z,0.20
2018-11-22T02:41:51.762Z,0.20
2018-11-22T02:44:31.717Z,0.20
2018-11-22T02:47:12.001Z,0.20
2018-11-22T02:49:52.483Z,0.20
2018-11-22T02:52:33.011Z,0.20
2018-11-22T02:55:12.859Z,0.20
2018-11-22T02:57:52.752Z,0.20
2018-11-22T03:00:37.597Z,0.20
2018-11-22T03:03:17.565Z,0.20
2018-11-22T03:05:58.258Z,0.20
2018-11-22T03:08:38.619Z,0.20
2018-11-22T03:11:19.044Z,0.20
2018-11-22T03:13:59.716Z,0.20
2018-11-22T03:16:39.354Z,0.20
2018-11-22T03:19:20.186Z,0.20
2018-11-22T03:21:59.778Z,0.20
2018-11-22T03:24:39.430Z,0.20
2018-11-22T03:27:19.773Z,0.20
2018-11-22T03:29:59.486Z,0.20
2018-11-22T03:32:39.286Z,0.20
2018-11-22T03:35:23.559Z,0.20
2018-11-22T03:38:03.993Z,0.20
2018-11-22T03:40:43.864Z,0.20
2018-11-22T03:43:23.901Z,0.20
2018-11-22T03:46:04.105Z,0.20
2018-11-22T03:48:44.789Z,0.30
2018-11-22T03:51:24.663Z,0.30
2018-11-22T03:54:04.431Z,0.30
2018-11-22T03:56:44.948Z,0.30
2018-11-22T03:59:24.836Z,0.30
2018-11-22T04:02:04.473Z,0.30
2018-11-22T04:04:44.181Z,0.20
2018-11-22T04:07:24.453Z,0.20
2018-11-22T04:10:05.102Z,0.20
2018-11-22T04:12:45.927Z,0.30
2018-11-22T04:15:26.508Z,0.20
2018-11-22T04:18:06.874Z,0.30
2018-11-22T04:20:47.398Z,0.20
2018-11-22T04:23:27.262Z,0.20
2018-11-22T04:26:07.701Z,0.30
2018-11-22T04:28:47.564Z,0.30
2018-11-22T04:31:27.225Z,0.30
2018-11-22T04:34:07.159Z,0.30
2018-11-22T04:36:46.828Z,0.30
2018-11-22T04:39:27.181Z,0.30
2018-11-22T04:42:07.288Z,0.30
2018-11-22T04:44:47.459Z,0.30
2018-11-22T04:47:26.895Z,0.30
2018-11-22T04:50:06.839Z,0.30
2018-11-22T04:52:46.674Z,0.30
2018-11-22T04:55:26.309Z,0.40
2018-11-22T04:58:06.974Z,0.30
2018-11-22T05:00:47.421Z,0.30
2018-11-22T05:03:27.978Z,0.40
2018-11-22T05:06:08.594Z,0.30
2018-11-22T05:08:48.189Z,0.40
2018-11-22T05:11:28.050Z,0.40
2018-11-22T05:14:07.821Z,0.40
2018-11-22T05:16:48.601Z,0.30
2018-11-22T05:19:29.123Z,0.30
2018-11-22T05:22:09.445Z,0.30
2018-11-22T05:24:49.179Z,0.30
2018-11-22T05:27:30.054Z,0.30
2018-11-22T05:30:10.399Z,0.30
2018-11-22T05:32:50.208Z,0.30
2018-11-22T05:35:30.028Z,0.30
2018-11-22T05:38:09.723Z,0.30
2018-11-22T05:40:49.459Z,0.30
2018-11-22T05:43:30.173Z,0.30
2018-11-22T05:46:10.005Z,0.30
2018-11-22T05:48:49.851Z,0.30
2018-11-22T05:51:30.172Z,0.30
2018-11-22T05:54:09.918Z,0.30
2018-11-22T05:56:50.310Z,0.40
2018-11-22T05:59:30.661Z,0.40
2018-11-22T06:02:10.496Z,0.40
2018-11-22T06:04:51.276Z,0.40
2018-11-22T06:07:30.874Z,0.40
2018-11-22T06:10:11.155Z,0.40
2018-11-22T06:12:52.154Z,0.30
2018-11-22T06:15:32.553Z,0.30
2018-11-22T06:18:14.145Z,0.30
2018-11-22T06:20:53.264Z,0.30
2018-11-22T06:23:33.023Z,0.40
2018-11-22T06:26:13.654Z,0.40
2018-11-22T06:28:54.030Z,0.30
2018-11-22T06:31:34.959Z,0.30
2018-11-22T06:34:15.073Z,0.40
2018-11-22T06:36:54.936Z,0.40
2018-11-22T06:39:36.945Z,0.40
2018-11-22T06:42:17.367Z,0.40
2018-11-22T06:44:57.740Z,0.40
2018-11-22T06:47:37.461Z,0.40
2018-11-22T06:50:18.394Z,0.40
2018-11-22T06:52:59.055Z,0.40
2018-11-22T06:55:38.813Z,0.40
2018-11-22T06:58:18.668Z,0.40
2018-11-22T07:00:58.735Z,0.40
2018-11-22T07:03:39.062Z,0.40
2018-11-22T07:06:19.733Z,0.40
2018-11-22T07:08:59.653Z,0.40
2018-11-22T07:11:39.596Z,0.40
2018-11-22T07:14:19.116Z,0.40
2018-11-22T07:16:59.696Z,0.50
2018-11-22T07:19:39.382Z,0.50
2018-11-22T07:22:20.134Z,0.50
2018-11-22T07:25:00.828Z,0.50
2018-11-22T07:27:41.523Z,0.50
2018-11-22T07:30:23.096Z,0.50
2018-11-22T07:33:03.746Z,0.50
2018-11-22T07:35:44.133Z,0.50
2018-11-22T07:38:24.066Z,0.50
2018-11-22T07:41:04.673Z,0.50
2018-11-22T07:43:45.254Z,0.50
2018-11-22T07:46:25.167Z,0.50
2018-11-22T07:49:05.320Z,0.60
2018-11-22T12:17:24.551Z,1.70
2018-11-22T12:19:55.363Z,1.70
2018-11-22T12:22:26.964Z,1.70
2018-11-22T12:24:57.874Z,1.70
2018-11-22T12:27:28.353Z,1.70
2018-11-22T12:29:59.188Z,1.70
2018-11-22T12:32:36.240Z,1.70
2018-11-22T12:35:14.248Z,1.70
2018-11-22T12:37:49.585Z,1.70
2018-11-22T12:40:21.106Z,1.70
2018-11-22T12:42:51.556Z,1.70
2018-11-22T12:45:37.745Z,1.60
2018-11-22T12:48:10.818Z,1.60
2018-11-22T12:50:45.330Z,1.70
2018-11-22T12:53:15.810Z,1.70
2018-11-22T12:55:46.262Z,1.60
2018-11-22T12:58:16.981Z,1.60
2018-11-22T13:00:47.524Z,1.70
2018-11-22T13:03:19.156Z,1.70
2018-11-22T13:05:49.983Z,1.70
2018-11-22T13:08:21.019Z,1.70
2018-11-22T13:10:54.240Z,1.60
2018-11-22T13:13:25.734Z,1.60
2018-11-22T13:15:56.310Z,1.60
2018-11-22T13:18:26.773Z,1.60
2018-11-22T13:20:57.353Z,1.60
2018-11-22T13:23:28.106Z,1.60
2018-11-22T13:25:58.999Z,1.60
2018-11-22T13:28:29.674Z,1.60
2018-11-22T13:31:01.214Z,1.60
2018-11-22T13:33:31.954Z,1.60
2018-11-22T13:36:03.069Z,1.50
2018-11-22T13:38:34.960Z,1.50
2018-11-22T13:41:06.609Z,1.50
2018-11-22T13:43:37.423Z,1.40
2018-11-22T13:46:09.370Z,1.40
2018-11-22T13:48:40.175Z,1.40
2018-11-22T13:51:15.329Z,1.40
2018-11-22T13:53:47.070Z,1.40
2018-11-22T13:56:17.485Z,1.40
2018-11-22T13:58:48.271Z,1.40
2018-11-22T14:01:19.459Z,1.40
2018-11-22T14:03:50.263Z,1.40
2018-11-22T14:06:21.343Z,1.40
2018-11-22T14:08:51.881Z,1.40
2018-11-22T14:11:22.302Z,1.50
2018-11-22T14:13:53.063Z,1.40
2018-11-22T14:16:23.664Z,1.40
2018-11-22T14:18:54.615Z,1.40
2018-11-22T14:21:25.037Z,1.40
2018-11-22T14:23:57.767Z,1.40
2018-11-22T14:26:28.286Z,1.40
2018-11-22T14:28:58.937Z,1.30
2018-11-22T14:31:29.574Z,1.40
2018-11-22T14:34:00.679Z,1.40
2018-11-22T14:36:32.172Z,1.40
2018-11-22T14:39:02.864Z,1.30
2018-11-22T14:41:33.302Z,1.30
2018-11-22T14:44:04.770Z,1.30
2018-11-22T14:46:35.770Z,1.30
2018-11-22T14:49:07.242Z,1.30
2018-11-22T14:51:43.474Z,1.30
2018-11-22T14:54:13.942Z,1.30
2018-11-22T14:56:45.843Z,1.30
2018-11-22T14:59:16.173Z,1.30
2018-11-22T15:01:46.752Z,1.30
2018-11-22T15:04:17.509Z,1.30
2018-11-22T15:06:48.460Z,1.40
2018-11-22T15:09:19.072Z,1.30
2018-11-22T15:11:49.633Z,1.30
2018-11-22T15:14:20.198Z,1.30
2018-11-22T15:16:51.358Z,1.30
2018-11-22T15:19:22.976Z,1.30
2018-11-22T15:21:53.727Z,1.20
2018-11-22T15:24:24.161Z,1.20
2018-11-22T15:26:54.626Z,1.20
2018-11-22T15:29:25.306Z,1.20
2018-11-22T15:31:55.322Z,1.20
2018-11-22T15:34:25.906Z,1.20
2018-11-22T15:36:57.175Z,1.20
2018-11-22T15:39:27.642Z,1.10
2018-11-22T15:41:58.097Z,1.10
2018-11-22T15:44:28.840Z,1.10
2018-11-22T15:46:59.408Z,1.10
2018-11-22T15:49:30.691Z,1.10
2018-11-22T15:52:02.167Z,1.10
2018-11-22T15:54:33.185Z,1.10
2018-11-22T15:57:04.095Z,1.20
2018-11-22T15:59:34.800Z,1.10
2018-11-22T16:02:06.117Z,1.10
2018-11-22T16:04:37.167Z,1.10
2018-11-22T16:07:08.366Z,1.10
2018-11-22T16:09:39.409Z,1.10
2018-11-22T16:12:10.354Z,1.20
2018-11-22T16:14:41.463Z,1.10
2018-11-22T16:17:12.278Z,1.10
2018-11-22T16:19:43.197Z,1.10
2018-11-22T16:22:15.715Z,1.10
2018-11-22T16:24:47.476Z,1.10
2018-11-22T16:27:18.196Z,1.10
2018-11-22T16:29:49.488Z,1.20
2018-11-22T16:32:20.496Z,1.20
2018-11-22T16:34:51.092Z,1.20
2018-11-22T16:37:22.730Z,1.20
2018-11-22T16:39:54.760Z,1.20
2018-11-22T16:42:27.284Z,1.20
2018-11-22T16:44:59.039Z,1.20
2018-11-22T16:47:29.690Z,1.20
2018-11-22T16:50:00.559Z,1.10
2018-11-22T16:52:32.233Z,1.10
2018-11-22T16:55:02.900Z,1.20
2018-11-22T16:57:33.392Z,1.10
2018-11-22T17:00:04.462Z,1.10
2018-11-22T17:02:35.946Z,1.10
2018-11-22T17:05:08.761Z,1.10
2018-11-22T17:07:40.290Z,1.10
2018-11-22T17:10:14.214Z,1.20
2018-11-22T17:12:47.265Z,1.10
2018-11-22T17:15:19.561Z,1.10
2018-11-22T17:17:50.953Z,1.10
2018-11-22T17:20:23.438Z,1.10
2018-11-22T17:22:54.437Z,1.10
2018-11-22T17:25:27.868Z,1.10
2018-11-22T17:28:03.715Z,1.10
2018-11-22T17:30:37.862Z,1.10
2018-11-22T17:33:08.579Z,1.10
2018-11-22T17:35:39.754Z,1.20
2018-11-22T17:38:11.502Z,1.10
2018-11-22T17:40:47.779Z,1.10
2018-11-22T17:43:19.152Z,1.10
2018-11-22T17:45:51.815Z,1.10
2018-11-22T17:48:22.552Z,1.10
2018-11-22T17:50:53.501Z,1.10
2018-11-22T17:53:24.045Z,1.00
2018-11-22T17:55:54.587Z,1.00
2018-11-22T17:58:26.374Z,1.00
2018-11-22T18:00:56.655Z,1.00
2018-11-22T18:03:27.540Z,1.00
2018-11-22T18:06:29.192Z,1.10
2018-11-22T18:09:00.647Z,1.10
2018-11-22T18:11:30.974Z,1.10
2018-11-22T18:14:01.696Z,1.10
2018-11-22T18:16:34.359Z,1.10
2018-11-22T18:19:06.560Z,1.10
2018-11-22T18:21:38.804Z,1.10
2018-11-22T18:24:40.269Z,1.10
2018-11-22T18:27:10.898Z,1.00
2018-11-22T18:29:41.475Z,1.00
2018-11-22T18:32:13.774Z,1.00
2018-11-22T18:34:44.864Z,1.00
2018-11-22T18:37:16.821Z,1.00
2018-11-22T18:39:47.665Z,1.00
2018-11-22T18:42:19.562Z,1.00
2018-11-22T18:44:50.894Z,1.00
2018-11-22T18:47:21.765Z,0.90
2018-11-22T18:49:52.864Z,0.90
2018-11-22T18:52:23.899Z,1.00
2018-11-22T18:54:55.276Z,1.00
2018-11-22T18:57:25.989Z,0.90
2018-11-22T18:59:57.658Z,1.00
2018-11-22T19:02:28.636Z,1.00
2018-11-22T19:05:01.216Z,1.00
2018-11-22T19:07:31.669Z,1.00
2018-11-22T19:10:02.229Z,0.90
2018-11-22T19:12:32.783Z,0.90
2018-11-22T19:15:03.351Z,0.80
2018-11-22T19:17:33.967Z,0.80
2018-11-22T19:20:09.181Z,0.70
2018-11-22T19:22:36.915Z,0.70
2018-11-22T19:25:08.036Z,0.70
2018-11-22T19:27:38.888Z,0.70
2018-11-22T19:30:12.223Z,0.80
2018-11-22T19:32:43.469Z,0.70
2018-11-22T19:35:15.144Z,0.70
2018-11-22T19:37:47.354Z,0.70
2018-11-22T19:40:24.581Z,0.70
2018-11-22T19:42:56.481Z,0.60
2018-11-22T19:45:28.768Z,0.50
2018-11-22T19:47:59.809Z,0.50
2018-11-22T19:50:30.907Z,0.40
2018-11-22T19:53:03.212Z,0.40
2018-11-22T19:55:35.190Z,0.40
2018-11-22T19:58:08.170Z,0.30
2018-11-22T20:00:40.141Z,0.30
2018-11-22T20:03:11.122Z,0.30
2018-11-22T20:05:42.292Z,0.20
2018-11-22T20:08:15.262Z,0.20
2018-11-22T20:10:48.132Z,0.20
2018-11-22T20:13:20.398Z,0.20
2018-11-22T20:15:51.132Z,0.30
2018-11-22T20:18:21.942Z,0.30
2018-11-22T20:20:53.283Z,0.40
2018-11-22T20:23:23.884Z,0.40
2018-11-22T20:25:55.390Z,0.40
2018-11-22T20:28:26.349Z,0.40
2018-11-22T20:30:57.217Z,0.40
2018-11-22T20:33:28.369Z,0.50
2018-11-22T20:36:00.705Z,0.50
2018-11-22T20:38:30.374Z,0.50
2018-11-22T20:41:01.314Z,0.50
2018-11-22T20:43:32.399Z,0.50
2018-11-22T20:46:03.761Z,0.50
2018-11-22T20:48:36.300Z,0.40
2018-11-22T20:51:07.260Z,0.40
2018-11-22T20:53:39.840Z,0.40
2018-11-22T20:56:12.540Z,0.40
2018-11-22T20:58:43.756Z,0.40
2018-11-22T21:01:14.410Z,0.50
2018-11-22T21:03:45.435Z,0.50
2018-11-22T21:06:15.850Z,0.50
2018-11-22T21:08:48.537Z,0.50
2018-11-22T21:11:18.629Z,0.50
2018-11-22T21:13:49.676Z,0.50
2018-11-22T21:16:21.826Z,0.50
2018-11-22T21:18:52.182Z,0.50
2018-11-22T21:21:22.733Z,0.50
2018-11-22T21:23:53.277Z,0.50
2018-11-22T21:26:24.046Z,0.60
2018-11-22T21:28:54.944Z,0.50
2018-11-22T21:31:25.881Z,0.60
2018-11-22T21:33:56.750Z,0.60
2018-11-22T21:36:27.339Z,0.60
2018-11-22T21:38:58.022Z,0.60
2018-11-22T21:41:28.541Z,0.60
2018-11-22T21:43:59.544Z,0.50
2018-11-22T21:46:33.519Z,0.50
2018-11-22T21:49:03.844Z,0.50
2018-11-22T21:51:39.370Z,0.50
2018-11-22T21:54:06.697Z,0.50
2018-11-22T21:56:38.106Z,0.50
2018-11-22T21:59:08.737Z,0.40
2018-11-22T22:01:40.068Z,0.40
2018-11-22T22:04:10.392Z,0.40
2018-11-22T22:06:41.829Z,0.40
2018-11-22T22:09:12.543Z,0.50
2018-11-22T22:11:42.995Z,0.40
2018-11-22T22:14:14.360Z,0.40
2018-11-22T22:16:45.774Z,0.40
2018-11-22T22:19:16.395Z,0.40
2018-11-22T22:21:46.937Z,0.40
2018-11-22T22:24:17.437Z,0.40
2018-11-22T22:26:48.044Z,0.40
2018-11-22T22:29:18.932Z,0.40
2018-11-22T22:31:49.574Z,0.40
2018-11-22T22:34:21.146Z,0.40
2018-11-22T22:36:51.755Z,0.40
2018-11-22T22:39:22.051Z,0.40
2018-11-22T22:41:52.591Z,0.50
2018-11-22T22:44:23.046Z,0.50
2018-11-22T22:46:53.692Z,0.50
2018-11-22T22:49:24.235Z,0.40
2018-11-22T22:51:54.809Z,0.50
2018-11-22T22:54:25.334Z,0.50
2018-11-22T22:56:55.876Z,0.40
2018-11-22T22:59:26.349Z,0.40
2018-11-22T23:01:57.470Z,0.40
2018-11-22T23:04:28.786Z,0.30
2018-11-22T23:06:59.199Z,0.30
2018-11-22T23:09:29.984Z,0.30
2018-11-22T23:12:00.544Z,0.20
2018-11-22T23:14:31.652Z,0.20
2018-11-22T23:17:02.261Z,0.20
2018-11-22T23:19:33.210Z,0.30
2018-11-22T23:22:04.516Z,0.20
2018-11-22T23:24:35.293Z,0.10
2018-11-22T23:27:05.780Z,0.00
2018-11-22T23:29:36.878Z,0.00
2018-11-22T23:32:08.003Z,-0.10
2018-11-22T23:34:38.453Z,-0.20
2018-11-22T23:37:09.120Z,-0.20
2018-11-22T23:39:40.122Z,-0.30
2018-11-22T23:42:10.934Z,-0.30
2018-11-22T23:44:41.524Z,-0.40
2018-11-22T23:47:12.209Z,-0.50
2018-11-22T23:49:42.812Z,-0.50
2018-11-22T23:52:13.752Z,-0.60
2018-11-22T23:54:44.198Z,-0.60
2018-11-22T23:57:14.721Z,-0.70
2018-11-22T23:59:45.799Z,-0.70
